sensor_id;sensor_type;location;lat;lon;timestamp;pressure;altitude;pressure_sealevel;temperature;humidity
50380;BME280;37474;59.468;18.040;2023-06-10T00:02:14;102814.16;;;1.98;100.00
50380;BME280;37474;59.468;18.040;2023-06-10T00:04:43;102807.72;;;2.20;100.00
50380;BME280;37474;59.468;18.040;2023-06-10T00:07:11;102809.38;;;2.18;100.00
50380;BME280;37474;59.468;18.040;2023-06-10T00:09:39;102812.56;;;2.04;100.00
50380;BME280;37474;59.468;18.040;2023-06-10T00:12:08;102819.25;;;1.95;100.00
50380;BME280;37474;59.468;18.040;2023-06-10T00:14:37;102818.41;;;1.96;100.00
50380;BME280;37474;59.468;18.040;2023-06-10T00:17:05;102810.34;;;2.24;100.00
50380;BME280;37474;59.468;18.040;2023-06-10T00:19:36;102815.03;;;2.00;100.00
50380;BME280;37474;59.468;18.040;2023-06-10T00:22:06;102817.19;;;1.77;100.00
50380;BME280;37474;59.468;18.040;2023-06-10T00:24:34;102818.03;;;1.76;100.00
50380;BME280;37474;59.468;18.040;2023-06-10T00:27:02;102819.69;;;1.72;100.00
50380;BME280;37474;59.468;18.040;2023-06-10T00:29:33;102814.91;;;1.91;100.00
50380;BME280;37474;59.468;18.040;2023-06-10T00:32:01;102826.00;;;2.43;100.00
50380;BME280;37474;59.468;18.040;2023-06-10T00:34:29;102825.53;;;2.14;100.00
50380;BME280;37474;59.468;18.040;2023-06-10T00:36:58;102827.13;;;2.08;100.00
50380;BME280;37474;59.468;18.040;2023-06-10T00:39:26;102826.09;;;1.99;100.00
50380;BME280;37474;59.468;18.040;2023-06-10T00:41:54;102825.78;;;1.80;100.00
50380;BME280;37474;59.468;18.040;2023-06-10T00:44:22;102825.03;;;1.84;100.00
50380;BME280;37474;59.468;18.040;2023-06-10T00:46:51;102826.16;;;1.55;100.00
50380;BME280;37474;59.468;18.040;2023-06-10T00:49:21;102835.13;;;1.35;100.00
50380;BME280;37474;59.468;18.040;2023-06-10T00:51:49;102835.97;;;1.34;100.00
50380;BME280;37474;59.468;18.040;2023-06-10T00:54:18;102839.31;;;1.32;100.00
50380;BME280;37474;59.468;18.040;2023-06-10T00:56:46;102842.84;;;1.38;100.00
50380;BME280;37474;59.468;18.040;2023-06-10T00:59:15;102843.75;;;1.40;100.00
50380;BME280;37474;59.468;18.040;2023-06-10T01:01:43;102843.34;;;1.21;100.00
50380;BME280;37474;59.468;18.040;2023-06-10T01:04:15;102846.56;;;1.11;100.00
50380;BME280;37474;59.468;18.040;2023-06-10T01:06:47;102847.19;;;1.42;100.00
50380;BME280;37474;59.468;18.040;2023-06-10T01:09:21;102849.66;;;1.37;100.00
50380;BME280;37474;59.468;18.040;2023-06-10T01:11:52;102849.38;;;1.23;100.00
50380;BME280;37474;59.468;18.040;2023-06-10T01:14:25;102855.03;;;1.10;100.00
50380;BME280;37474;59.468;18.040;2023-06-10T01:16:54;102850.09;;;1.60;100.00
50380;BME280;37474;59.468;18.040;2023-06-10T01:19:24;102844.69;;;1.89;100.00
50380;BME280;37474;59.468;18.040;2023-06-10T01:21:53;102850.19;;;1.65;100.00
50380;BME280;37474;59.468;18.040;2023-06-10T01:24:21;102852.94;;;1.31;100.00
50380;BME280;37474;59.468;18.040;2023-06-10T01:26:49;102871.03;;;1.01;100.00
50380;BME280;37474;59.468;18.040;2023-06-10T01:29:20;102866.44;;;0.87;100.00
50380;BME280;37474;59.468;18.040;2023-06-10T01:31:49;102867.16;;;0.79;100.00
50380;BME280;37474;59.468;18.040;2023-06-10T01:34:19;102874.19;;;0.90;100.00
50380;BME280;37474;59.468;18.040;2023-06-10T01:36:49;102883.38;;;0.83;100.00
50380;BME280;37474;59.468;18.040;2023-06-10T01:39:20;102875.78;;;0.85;100.00
50380;BME280;37474;59.468;18.040;2023-06-10T01:41:48;102867.34;;;0.89;100.00
50380;BME280;37474;59.468;18.040;2023-06-10T01:44:17;102872.44;;;0.89;100.00
50380;BME280;37474;59.468;18.040;2023-06-10T01:46:45;102876.22;;;1.04;100.00
50380;BME280;37474;59.468;18.040;2023-06-10T01:49:13;102869.63;;;1.14;100.00
50380;BME280;37474;59.468;18.040;2023-06-10T01:51:41;102876.81;;;0.94;100.00
50380;BME280;37474;59.468;18.040;2023-06-10T01:54:09;102876.91;;;0.97;100.00
50380;BME280;37474;59.468;18.040;2023-06-10T01:56:40;102879.16;;;0.84;100.00
50380;BME280;37474;59.468;18.040;2023-06-10T01:59:08;102877.41;;;0.83;100.00
50380;BME280;37474;59.468;18.040;2023-06-10T02:01:36;102877.88;;;1.02;100.00
50380;BME280;37474;59.468;18.040;2023-06-10T02:04:04;102873.41;;;0.94;100.00
50380;BME280;37474;59.468;18.040;2023-06-10T02:06:32;102877.59;;;0.90;100.00
50380;BME280;37474;59.468;18.040;2023-06-10T02:09:01;102883.00;;;1.04;100.00
50380;BME280;37474;59.468;18.040;2023-06-10T02:11:29;102874.66;;;1.11;100.00
50380;BME280;37474;59.468;18.040;2023-06-10T02:13:58;102876.16;;;1.01;100.00
50380;BME280;37474;59.468;18.040;2023-06-10T02:16:26;102870.28;;;1.45;100.00
50380;BME280;37474;59.468;18.040;2023-06-10T02:18:54;102874.44;;;1.83;100.00
50380;BME280;37474;59.468;18.040;2023-06-10T02:21:22;102874.91;;;1.64;100.00
50380;BME280;37474;59.468;18.040;2023-06-10T02:23:54;102880.75;;;1.57;100.00
50380;BME280;37474;59.468;18.040;2023-06-10T02:26:22;102879.16;;;1.64;100.00
50380;BME280;37474;59.468;18.040;2023-06-10T02:28:52;102879.31;;;1.71;100.00
50380;BME280;37474;59.468;18.040;2023-06-10T02:31:21;102882.69;;;1.70;100.00
50380;BME280;37474;59.468;18.040;2023-06-10T02:33:51;102881.22;;;1.81;100.00
50380;BME280;37474;59.468;18.040;2023-06-10T02:36:19;102879.69;;;1.90;100.00
50380;BME280;37474;59.468;18.040;2023-06-10T02:38:48;102886.72;;;2.03;100.00
50380;BME280;37474;59.468;18.040;2023-06-10T02:41:16;102891.31;;;2.21;100.00
50380;BME280;37474;59.468;18.040;2023-06-10T02:43:45;102890.66;;;2.32;100.00
50380;BME280;37474;59.468;18.040;2023-06-10T02:46:13;102887.72;;;2.59;100.00
50380;BME280;37474;59.468;18.040;2023-06-10T02:48:43;102887.09;;;2.76;99.52
50380;BME280;37474;59.468;18.040;2023-06-10T02:51:11;102881.38;;;2.90;99.24
50380;BME280;37474;59.468;18.040;2023-06-10T02:53:39;102890.97;;;3.05;97.65
50380;BME280;37474;59.468;18.040;2023-06-10T02:56:07;102892.03;;;3.21;97.60
50380;BME280;37474;59.468;18.040;2023-06-10T02:58:34;102888.91;;;3.43;96.84
50380;BME280;37474;59.468;18.040;2023-06-10T03:01:03;102887.44;;;3.62;96.43
50380;BME280;37474;59.468;18.040;2023-06-10T03:03:31;102892.72;;;3.73;95.65
50380;BME280;37474;59.468;18.040;2023-06-10T03:06:01;102892.94;;;3.94;94.80
50380;BME280;37474;59.468;18.040;2023-06-10T03:08:29;102901.69;;;4.13;93.43
50380;BME280;37474;59.468;18.040;2023-06-10T03:10:57;102899.38;;;4.41;92.43
50380;BME280;37474;59.468;18.040;2023-06-10T03:13:28;102897.03;;;4.70;90.88
50380;BME280;37474;59.468;18.040;2023-06-10T03:15:56;102902.28;;;4.82;90.98
50380;BME280;37474;59.468;18.040;2023-06-10T03:18:25;102895.53;;;4.99;91.47
50380;BME280;37474;59.468;18.040;2023-06-10T03:20:53;102892.25;;;5.25;90.75
50380;BME280;37474;59.468;18.040;2023-06-10T03:23:23;102902.72;;;5.62;88.85
50380;BME280;37474;59.468;18.040;2023-06-10T03:25:50;102895.09;;;5.85;91.27
50380;BME280;37474;59.468;18.040;2023-06-10T03:28:19;102901.13;;;5.91;91.76
50380;BME280;37474;59.468;18.040;2023-06-10T03:30:47;102899.47;;;6.13;92.14
50380;BME280;37474;59.468;18.040;2023-06-10T03:33:15;102893.47;;;6.35;91.72
50380;BME280;37474;59.468;18.040;2023-06-10T03:35:43;102895.22;;;6.50;91.84
50380;BME280;37474;59.468;18.040;2023-06-10T03:38:11;102893.47;;;6.74;88.81
50380;BME280;37474;59.468;18.040;2023-06-10T03:40:40;102896.91;;;6.82;89.23
50380;BME280;37474;59.468;18.040;2023-06-10T03:43:08;102895.16;;;7.05;87.91
50380;BME280;37474;59.468;18.040;2023-06-10T03:45:36;102892.59;;;6.93;88.66
50380;BME280;37474;59.468;18.040;2023-06-10T03:48:04;102900.31;;;6.93;89.20
50380;BME280;37474;59.468;18.040;2023-06-10T03:50:32;102900.31;;;6.99;90.93
50380;BME280;37474;59.468;18.040;2023-06-10T03:53:03;102895.13;;;7.22;88.57
50380;BME280;37474;59.468;18.040;2023-06-10T03:55:33;102899.38;;;7.31;88.50
50380;BME280;37474;59.468;18.040;2023-06-10T03:58:02;102901.84;;;7.58;88.01
50380;BME280;37474;59.468;18.040;2023-06-10T04:00:30;102905.25;;;7.73;87.87
50380;BME280;37474;59.468;18.040;2023-06-10T04:03:07;102902.56;;;7.88;86.70
50380;BME280;37474;59.468;18.040;2023-06-10T04:05:41;102901.69;;;7.95;88.26
50380;BME280;37474;59.468;18.040;2023-06-10T04:08:09;102904.13;;;8.18;86.47
50380;BME280;37474;59.468;18.040;2023-06-10T04:10:37;102910.94;;;8.27;85.33
50380;BME280;37474;59.468;18.040;2023-06-10T04:13:06;102907.47;;;8.38;85.51
50380;BME280;37474;59.468;18.040;2023-06-10T04:15:35;102906.41;;;8.59;84.64
50380;BME280;37474;59.468;18.040;2023-06-10T04:18:03;102912.34;;;8.73;86.12
50380;BME280;37474;59.468;18.040;2023-06-10T04:20:31;102914.13;;;8.67;85.20
50380;BME280;37474;59.468;18.040;2023-06-10T04:22:59;102915.97;;;8.51;80.79
50380;BME280;37474;59.468;18.040;2023-06-10T04:25:27;102911.50;;;8.68;83.08
50380;BME280;37474;59.468;18.040;2023-06-10T04:27:55;102916.44;;;8.96;81.00
50380;BME280;37474;59.468;18.040;2023-06-10T04:30:24;102904.81;;;9.34;83.62
50380;BME280;37474;59.468;18.040;2023-06-10T04:32:52;102914.94;;;9.53;79.89
50380;BME280;37474;59.468;18.040;2023-06-10T04:35:20;102904.28;;;9.78;79.44
50380;BME280;37474;59.468;18.040;2023-06-10T04:37:48;102903.56;;;9.67;80.13
50380;BME280;37474;59.468;18.040;2023-06-10T04:40:16;102906.94;;;9.72;79.32
50380;BME280;37474;59.468;18.040;2023-06-10T04:42:44;102914.09;;;9.51;77.79
50380;BME280;37474;59.468;18.040;2023-06-10T04:45:12;102908.44;;;9.90;74.66
50380;BME280;37474;59.468;18.040;2023-06-10T04:47:41;102910.00;;;9.98;74.91
50380;BME280;37474;59.468;18.040;2023-06-10T04:50:10;102911.41;;;10.24;70.95
50380;BME280;37474;59.468;18.040;2023-06-10T04:52:38;102917.28;;;10.35;73.02
50380;BME280;37474;59.468;18.040;2023-06-10T04:55:08;102920.53;;;10.49;70.44
50380;BME280;37474;59.468;18.040;2023-06-10T04:57:36;102919.00;;;10.89;68.98
50380;BME280;37474;59.468;18.040;2023-06-10T05:00:05;102918.69;;;11.04;66.40
50380;BME280;37474;59.468;18.040;2023-06-10T05:02:33;102916.22;;;10.98;65.13
50380;BME280;37474;59.468;18.040;2023-06-10T05:05:02;102916.94;;;11.06;66.69
50380;BME280;37474;59.468;18.040;2023-06-10T05:07:30;102916.78;;;11.14;67.37
50380;BME280;37474;59.468;18.040;2023-06-10T05:09:58;102914.28;;;11.52;67.18
50380;BME280;37474;59.468;18.040;2023-06-10T05:12:26;102913.59;;;11.86;62.78
50380;BME280;37474;59.468;18.040;2023-06-10T05:14:54;102922.00;;;11.57;64.89
50380;BME280;37474;59.468;18.040;2023-06-10T05:17:22;102921.06;;;11.61;66.03
50380;BME280;37474;59.468;18.040;2023-06-10T05:19:51;102914.84;;;11.68;64.80
50380;BME280;37474;59.468;18.040;2023-06-10T05:22:21;102918.47;;;11.61;65.93
50380;BME280;37474;59.468;18.040;2023-06-10T05:24:50;102917.16;;;11.80;63.74
50380;BME280;37474;59.468;18.040;2023-06-10T05:27:19;102906.38;;;12.00;63.33
50380;BME280;37474;59.468;18.040;2023-06-10T05:29:47;102914.53;;;12.22;60.69
50380;BME280;37474;59.468;18.040;2023-06-10T05:32:16;102914.38;;;12.97;55.37
50380;BME280;37474;59.468;18.040;2023-06-10T05:34:44;102917.06;;;12.59;56.85
50380;BME280;37474;59.468;18.040;2023-06-10T05:37:12;102921.69;;;12.50;57.36
50380;BME280;37474;59.468;18.040;2023-06-10T05:39:44;102909.06;;;13.34;56.03
50380;BME280;37474;59.468;18.040;2023-06-10T05:42:12;102906.59;;;13.88;53.72
50380;BME280;37474;59.468;18.040;2023-06-10T05:44:40;102916.53;;;13.13;53.98
50380;BME280;37474;59.468;18.040;2023-06-10T05:47:08;102908.75;;;13.44;54.88
50380;BME280;37474;59.468;18.040;2023-06-10T05:49:36;102917.19;;;13.53;53.41
50380;BME280;37474;59.468;18.040;2023-06-10T05:52:04;102918.06;;;12.89;55.59
50380;BME280;37474;59.468;18.040;2023-06-10T05:54:32;102920.66;;;12.89;56.22
50380;BME280;37474;59.468;18.040;2023-06-10T05:57:01;102918.78;;;12.94;56.21
50380;BME280;37474;59.468;18.040;2023-06-10T05:59:29;102920.34;;;12.33;57.81
50380;BME280;37474;59.468;18.040;2023-06-10T06:01:58;102925.22;;;12.46;57.65
50380;BME280;37474;59.468;18.040;2023-06-10T06:04:28;102925.56;;;12.32;57.00
50380;BME280;37474;59.468;18.040;2023-06-10T06:06:56;102921.84;;;13.10;56.15
50380;BME280;37474;59.468;18.040;2023-06-10T06:09:24;102918.84;;;13.85;54.37
50380;BME280;37474;59.468;18.040;2023-06-10T06:11:52;102924.63;;;13.66;52.91
50380;BME280;37474;59.468;18.040;2023-06-10T06:14:21;102911.03;;;14.13;50.26
50380;BME280;37474;59.468;18.040;2023-06-10T06:16:49;102916.97;;;13.90;52.10
50380;BME280;37474;59.468;18.040;2023-06-10T06:19:17;102922.13;;;14.19;51.30
50380;BME280;37474;59.468;18.040;2023-06-10T06:21:45;102923.31;;;13.52;50.03
50380;BME280;37474;59.468;18.040;2023-06-10T06:24:13;102919.06;;;14.07;51.25
50380;BME280;37474;59.468;18.040;2023-06-10T06:26:42;102918.00;;;14.12;52.15
50380;BME280;37474;59.468;18.040;2023-06-10T06:29:09;102928.69;;;13.13;52.47
50380;BME280;37474;59.468;18.040;2023-06-10T06:31:39;102926.69;;;13.85;52.54
50380;BME280;37474;59.468;18.040;2023-06-10T06:34:07;102928.16;;;13.34;51.02
50380;BME280;37474;59.468;18.040;2023-06-10T06:36:34;102919.44;;;14.22;50.24
50380;BME280;37474;59.468;18.040;2023-06-10T06:39:02;102925.97;;;14.87;47.43
50380;BME280;37474;59.468;18.040;2023-06-10T06:41:30;102932.44;;;15.27;48.53
50380;BME280;37474;59.468;18.040;2023-06-10T06:43:58;102932.53;;;14.99;47.96
50380;BME280;37474;59.468;18.040;2023-06-10T06:46:26;102939.47;;;14.75;49.62
50380;BME280;37474;59.468;18.040;2023-06-10T06:48:56;102936.38;;;15.14;48.21
50380;BME280;37474;59.468;18.040;2023-06-10T06:51:24;102929.44;;;15.61;49.34
50380;BME280;37474;59.468;18.040;2023-06-10T06:53:52;102938.78;;;15.43;48.12
50380;BME280;37474;59.468;18.040;2023-06-10T06:56:23;102934.22;;;15.25;48.93
50380;BME280;37474;59.468;18.040;2023-06-10T06:58:51;102938.88;;;15.65;45.93
50380;BME280;37474;59.468;18.040;2023-06-10T07:01:22;102937.13;;;16.11;45.25
50380;BME280;37474;59.468;18.040;2023-06-10T07:03:50;102945.50;;;14.50;48.13
50380;BME280;37474;59.468;18.040;2023-06-10T07:06:19;102945.78;;;14.94;48.07
50380;BME280;37474;59.468;18.040;2023-06-10T07:08:48;102943.94;;;15.70;47.59
50380;BME280;37474;59.468;18.040;2023-06-10T07:11:16;102948.69;;;15.35;47.18
50380;BME280;37474;59.468;18.040;2023-06-10T07:13:47;102942.22;;;15.45;48.74
50380;BME280;37474;59.468;18.040;2023-06-10T07:16:15;102939.59;;;15.45;47.04
50380;BME280;37474;59.468;18.040;2023-06-10T07:18:43;102939.91;;;15.59;47.45
50380;BME280;37474;59.468;18.040;2023-06-10T07:21:11;102943.06;;;15.93;47.88
50380;BME280;37474;59.468;18.040;2023-06-10T07:23:42;102940.50;;;16.13;44.91
50380;BME280;37474;59.468;18.040;2023-06-10T07:26:11;102943.34;;;16.73;45.47
50380;BME280;37474;59.468;18.040;2023-06-10T07:28:40;102941.19;;;16.18;44.22
50380;BME280;37474;59.468;18.040;2023-06-10T07:31:08;102938.69;;;16.15;43.96
50380;BME280;37474;59.468;18.040;2023-06-10T07:33:36;102942.38;;;16.53;45.09
50380;BME280;37474;59.468;18.040;2023-06-10T07:36:05;102936.97;;;16.99;43.21
50380;BME280;37474;59.468;18.040;2023-06-10T07:38:33;102932.94;;;16.71;42.21
50380;BME280;37474;59.468;18.040;2023-06-10T07:41:02;102933.91;;;16.89;42.04
50380;BME280;37474;59.468;18.040;2023-06-10T07:43:31;102934.50;;;17.54;40.83
50380;BME280;37474;59.468;18.040;2023-06-10T07:45:58;102932.25;;;18.22;39.08
50380;BME280;37474;59.468;18.040;2023-06-10T07:48:27;102926.78;;;18.07;39.11
50380;BME280;37474;59.468;18.040;2023-06-10T07:50:54;102937.47;;;18.75;35.59
50380;BME280;37474;59.468;18.040;2023-06-10T07:53:22;102933.63;;;18.29;34.42
50380;BME280;37474;59.468;18.040;2023-06-10T07:55:50;102937.13;;;18.64;35.15
50380;BME280;37474;59.468;18.040;2023-06-10T07:58:19;102937.09;;;18.29;34.96
50380;BME280;37474;59.468;18.040;2023-06-10T08:00:47;102930.56;;;18.55;35.84
50380;BME280;37474;59.468;18.040;2023-06-10T08:03:15;102938.78;;;18.84;34.77
50380;BME280;37474;59.468;18.040;2023-06-10T08:05:43;102938.75;;;19.01;33.43
50380;BME280;37474;59.468;18.040;2023-06-10T08:08:11;102930.13;;;19.15;34.56
50380;BME280;37474;59.468;18.040;2023-06-10T08:10:39;102944.16;;;18.98;32.39
50380;BME280;37474;59.468;18.040;2023-06-10T08:13:07;102938.00;;;19.32;31.89
50380;BME280;37474;59.468;18.040;2023-06-10T08:15:36;102937.31;;;18.78;32.92
50380;BME280;37474;59.468;18.040;2023-06-10T08:18:07;102934.13;;;18.89;35.53
50380;BME280;37474;59.468;18.040;2023-06-10T08:20:37;102931.59;;;19.20;36.07
50380;BME280;37474;59.468;18.040;2023-06-10T08:23:05;102928.72;;;19.74;33.34
50380;BME280;37474;59.468;18.040;2023-06-10T08:25:33;102927.50;;;20.11;33.03
50380;BME280;37474;59.468;18.040;2023-06-10T08:28:01;102934.19;;;20.33;31.05
50380;BME280;37474;59.468;18.040;2023-06-10T08:30:28;102933.72;;;20.56;30.98
50380;BME280;37474;59.468;18.040;2023-06-10T08:32:58;102930.97;;;20.27;30.79
50380;BME280;37474;59.468;18.040;2023-06-10T08:35:26;102933.63;;;19.80;31.46
50380;BME280;37474;59.468;18.040;2023-06-10T08:37:55;102923.19;;;20.10;31.82
50380;BME280;37474;59.468;18.040;2023-06-10T08:40:23;102932.09;;;20.08;31.59
50380;BME280;37474;59.468;18.040;2023-06-10T08:42:53;102931.66;;;18.86;31.34
50380;BME280;37474;59.468;18.040;2023-06-10T08:45:26;102924.94;;;18.80;33.57
50380;BME280;37474;59.468;18.040;2023-06-10T08:47:59;102932.94;;;19.12;34.55
50380;BME280;37474;59.468;18.040;2023-06-10T08:50:28;102930.72;;;19.53;30.88
50380;BME280;37474;59.468;18.040;2023-06-10T08:52:57;102920.88;;;20.04;29.46
50380;BME280;37474;59.468;18.040;2023-06-10T08:55:27;102927.41;;;20.59;30.72
50380;BME280;37474;59.468;18.040;2023-06-10T08:57:58;102922.75;;;20.48;28.54
50380;BME280;37474;59.468;18.040;2023-06-10T09:00:26;102920.84;;;20.20;28.71
50380;BME280;37474;59.468;18.040;2023-06-10T09:02:55;102932.56;;;20.30;28.87
50380;BME280;37474;59.468;18.040;2023-06-10T09:05:24;102923.75;;;20.15;28.49
50380;BME280;37474;59.468;18.040;2023-06-10T09:07:54;102926.09;;;20.36;28.62
50380;BME280;37474;59.468;18.040;2023-06-10T09:10:23;102930.31;;;20.54;28.75
50380;BME280;37474;59.468;18.040;2023-06-10T09:12:51;102921.94;;;20.31;29.86
50380;BME280;37474;59.468;18.040;2023-06-10T09:15:19;102917.38;;;20.79;29.72
50380;BME280;37474;59.468;18.040;2023-06-10T09:17:47;102915.13;;;21.02;28.17
50380;BME280;37474;59.468;18.040;2023-06-10T09:20:15;102924.06;;;20.85;28.03
50380;BME280;37474;59.468;18.040;2023-06-10T09:22:45;102921.75;;;20.35;27.55
50380;BME280;37474;59.468;18.040;2023-06-10T09:25:13;102920.69;;;20.83;27.53
50380;BME280;37474;59.468;18.040;2023-06-10T09:27:44;102908.34;;;21.26;27.24
50380;BME280;37474;59.468;18.040;2023-06-10T09:30:24;102912.59;;;21.29;26.73
50380;BME280;37474;59.468;18.040;2023-06-10T09:32:53;102903.19;;;21.39;26.20
50380;BME280;37474;59.468;18.040;2023-06-10T09:35:23;102913.63;;;21.55;27.32
50380;BME280;37474;59.468;18.040;2023-06-10T09:37:52;102907.41;;;21.42;26.75
50380;BME280;37474;59.468;18.040;2023-06-10T09:40:21;102912.88;;;21.24;25.59
50380;BME280;37474;59.468;18.040;2023-06-10T09:42:52;102909.88;;;21.02;28.43
50380;BME280;37474;59.468;18.040;2023-06-10T09:45:21;102912.59;;;21.00;28.73
50380;BME280;37474;59.468;18.040;2023-06-10T09:47:51;102917.03;;;21.28;27.32
50380;BME280;37474;59.468;18.040;2023-06-10T09:50:19;102909.28;;;21.54;26.91
50380;BME280;37474;59.468;18.040;2023-06-10T09:52:47;102912.31;;;21.48;26.85
50380;BME280;37474;59.468;18.040;2023-06-10T09:55:17;102919.75;;;21.27;27.63
50380;BME280;37474;59.468;18.040;2023-06-10T09:57:45;102922.22;;;21.16;28.65
50380;BME280;37474;59.468;18.040;2023-06-10T10:00:17;102909.75;;;21.60;27.53
50380;BME280;37474;59.468;18.040;2023-06-10T10:02:45;102920.56;;;20.70;27.77
50380;BME280;37474;59.468;18.040;2023-06-10T10:05:14;102924.72;;;20.74;27.79
50380;BME280;37474;59.468;18.040;2023-06-10T10:07:43;102920.78;;;20.96;26.81
50380;BME280;37474;59.468;18.040;2023-06-10T10:10:11;102916.63;;;21.20;27.66
50380;BME280;37474;59.468;18.040;2023-06-10T10:12:41;102917.13;;;21.13;26.78
50380;BME280;37474;59.468;18.040;2023-06-10T10:15:10;102913.00;;;20.50;27.73
50380;BME280;37474;59.468;18.040;2023-06-10T10:17:40;102917.78;;;20.27;28.25
50380;BME280;37474;59.468;18.040;2023-06-10T10:20:08;102913.16;;;20.91;28.75
50380;BME280;37474;59.468;18.040;2023-06-10T10:22:37;102914.47;;;20.84;27.80
50380;BME280;37474;59.468;18.040;2023-06-10T10:25:07;102909.09;;;20.86;28.63
50380;BME280;37474;59.468;18.040;2023-06-10T10:27:36;102916.50;;;20.65;29.24
50380;BME280;37474;59.468;18.040;2023-06-10T10:30:10;102905.91;;;21.38;29.97
50380;BME280;37474;59.468;18.040;2023-06-10T10:32:40;102911.19;;;21.52;29.21
50380;BME280;37474;59.468;18.040;2023-06-10T10:35:12;102910.59;;;20.61;29.74
50380;BME280;37474;59.468;18.040;2023-06-10T10:37:40;102903.78;;;20.57;30.37
50380;BME280;37474;59.468;18.040;2023-06-10T10:40:08;102898.44;;;20.13;29.85
50380;BME280;37474;59.468;18.040;2023-06-10T10:42:37;102904.56;;;20.13;30.41
50380;BME280;37474;59.468;18.040;2023-06-10T10:45:06;102904.38;;;20.62;31.06
50380;BME280;37474;59.468;18.040;2023-06-10T10:47:36;102904.59;;;21.16;29.94
50380;BME280;37474;59.468;18.040;2023-06-10T10:50:12;102901.41;;;20.22;30.74
50380;BME280;37474;59.468;18.040;2023-06-10T10:52:51;102898.47;;;21.01;30.15
50380;BME280;37474;59.468;18.040;2023-06-10T10:55:20;102899.03;;;21.49;29.93
50380;BME280;37474;59.468;18.040;2023-06-10T10:57:54;102901.63;;;21.64;29.76
50380;BME280;37474;59.468;18.040;2023-06-10T11:00:29;102901.34;;;21.68;30.55
50380;BME280;37474;59.468;18.040;2023-06-10T11:02:59;102899.22;;;20.89;31.20
50380;BME280;37474;59.468;18.040;2023-06-10T11:05:35;102917.19;;;21.25;31.38
50380;BME280;37474;59.468;18.040;2023-06-10T11:08:04;102903.91;;;20.98;30.62
50380;BME280;37474;59.468;18.040;2023-06-10T11:10:32;102896.94;;;21.26;30.93
50380;BME280;37474;59.468;18.040;2023-06-10T11:13:06;102897.88;;;20.38;31.88
50380;BME280;37474;59.468;18.040;2023-06-10T11:15:38;102894.44;;;21.10;31.83
50380;BME280;37474;59.468;18.040;2023-06-10T11:18:11;102889.63;;;21.31;31.19
50380;BME280;37474;59.468;18.040;2023-06-10T11:20:43;102893.38;;;21.41;30.89
50380;BME280;37474;59.468;18.040;2023-06-10T11:23:24;102896.88;;;20.85;30.82
50380;BME280;37474;59.468;18.040;2023-06-10T11:25:53;102898.94;;;21.08;31.10
50380;BME280;37474;59.468;18.040;2023-06-10T11:28:36;102899.59;;;20.97;31.23
50380;BME280;37474;59.468;18.040;2023-06-10T11:31:04;102879.63;;;21.22;31.09
50380;BME280;37474;59.468;18.040;2023-06-10T11:33:33;102886.97;;;21.45;30.63
50380;BME280;37474;59.468;18.040;2023-06-10T11:36:06;102879.63;;;21.36;31.17
50380;BME280;37474;59.468;18.040;2023-06-10T11:38:34;102889.44;;;21.34;30.86
50380;BME280;37474;59.468;18.040;2023-06-10T11:41:02;102884.78;;;21.38;31.24
50380;BME280;37474;59.468;18.040;2023-06-10T11:43:30;102884.59;;;21.55;30.10
50380;BME280;37474;59.468;18.040;2023-06-10T11:45:58;102882.53;;;21.46;31.06
50380;BME280;37474;59.468;18.040;2023-06-10T11:48:26;102882.34;;;21.20;31.05
50380;BME280;37474;59.468;18.040;2023-06-10T11:50:56;102888.00;;;20.11;33.25
50380;BME280;37474;59.468;18.040;2023-06-10T11:53:24;102888.28;;;20.67;32.66
50380;BME280;37474;59.468;18.040;2023-06-10T11:55:53;102877.84;;;21.08;31.65
50380;BME280;37474;59.468;18.040;2023-06-10T11:58:21;102874.84;;;20.71;31.77
50380;BME280;37474;59.468;18.040;2023-06-10T12:00:50;102878.03;;;20.91;31.24
50380;BME280;37474;59.468;18.040;2023-06-10T12:03:20;102881.03;;;20.85;31.50
50380;BME280;37474;59.468;18.040;2023-06-10T12:05:59;102871.25;;;21.01;30.62
50380;BME280;37474;59.468;18.040;2023-06-10T12:08:27;102869.94;;;21.22;30.97
50380;BME280;37474;59.468;18.040;2023-06-10T12:10:55;102875.41;;;20.91;30.76
50380;BME280;37474;59.468;18.040;2023-06-10T12:13:25;102871.41;;;21.26;31.04
50380;BME280;37474;59.468;18.040;2023-06-10T12:15:54;102879.28;;;20.99;31.18
50380;BME280;37474;59.468;18.040;2023-06-10T12:18:22;102874.94;;;20.84;30.50
50380;BME280;37474;59.468;18.040;2023-06-10T12:20:50;102874.81;;;20.86;31.24
50380;BME280;37474;59.468;18.040;2023-06-10T12:25:28;102877.25;;;20.60;32.14
50380;BME280;37474;59.468;18.040;2023-06-10T12:27:57;102875.75;;;20.56;32.04
50380;BME280;37474;59.468;18.040;2023-06-10T12:30:26;102870.59;;;20.97;30.75
50380;BME280;37474;59.468;18.040;2023-06-10T12:32:55;102871.63;;;20.66;30.62
50380;BME280;37474;59.468;18.040;2023-06-10T12:35:26;102875.00;;;20.97;30.83
50380;BME280;37474;59.468;18.040;2023-06-10T12:37:55;102870.88;;;20.78;30.99
50380;BME280;37474;59.468;18.040;2023-06-10T12:40:29;102870.56;;;20.24;31.17
50380;BME280;37474;59.468;18.040;2023-06-10T12:42:59;102871.72;;;20.79;31.38
50380;BME280;37474;59.468;18.040;2023-06-10T12:45:27;102871.50;;;20.82;31.19
50380;BME280;37474;59.468;18.040;2023-06-10T12:48:06;102866.63;;;20.76;31.18
50380;BME280;37474;59.468;18.040;2023-06-10T12:50:36;102870.09;;;20.62;31.17
50380;BME280;37474;59.468;18.040;2023-06-10T12:53:06;102863.44;;;20.41;31.15